sensor_id;sensor_type;location;lat;lon;timestamp;P1;durP1;ratioP1;P2;durP2;ratioP2
10523;SDS011;5310;48.638;9.060;2023-06-22T00:01:49;3.87;;;1.83;;
10523;SDS011;5310;48.638;9.060;2023-06-22T00:04:15;3.57;;;1.77;;
10523;SDS011;5310;48.638;9.060;2023-06-22T00:06:41;3.87;;;1.80;;
10523;SDS011;5310;48.638;9.060;2023-06-22T00:09:07;4.13;;;1.90;;
10523;SDS011;5310;48.638;9.060;2023-06-22T00:11:33;4.65;;;2.15;;
10523;SDS011;5310;48.638;9.060;2023-06-22T00:13:59;3.87;;;1.83;;
10523;SDS011;5310;48.638;9.060;2023-06-22T00:16:25;3.43;;;1.77;;
10523;SDS011;5310;48.638;9.060;2023-06-22T00:18:51;4.53;;;1.92;;
10523;SDS011;5310;48.638;9.060;2023-06-22T00:21:17;4.23;;;1.90;;
10523;SDS011;5310;48.638;9.060;2023-06-22T00:23:45;6.07;;;2.30;;
10523;SDS011;5310;48.638;9.060;2023-06-22T00:26:12;4.47;;;2.00;;
10523;SDS011;5310;48.638;9.060;2023-06-22T00:28:38;4.33;;;1.93;;
10523;SDS011;5310;48.638;9.060;2023-06-22T00:31:04;4.17;;;2.00;;
10523;SDS011;5310;48.638;9.060;2023-06-22T00:33:30;4.77;;;2.20;;
10523;SDS011;5310;48.638;9.060;2023-06-22T00:35:56;4.77;;;2.13;;
10523;SDS011;5310;48.638;9.060;2023-06-22T00:38:22;4.27;;;1.90;;
10523;SDS011;5310;48.638;9.060;2023-06-22T00:40:48;4.30;;;2.00;;
10523;SDS011;5310;48.638;9.060;2023-06-22T00:43:14;3.80;;;1.77;;
10523;SDS011;5310;48.638;9.060;2023-06-22T00:45:40;3.97;;;1.80;;
10523;SDS011;5310;48.638;9.060;2023-06-22T00:48:06;4.47;;;2.10;;
10523;SDS011;5310;48.638;9.060;2023-06-22T00:50:33;3.73;;;1.87;;
10523;SDS011;5310;48.638;9.060;2023-06-22T00:53:00;3.27;;;1.70;;
10523;SDS011;5310;48.638;9.060;2023-06-22T00:55:33;5.57;;;2.30;;
10523;SDS011;5310;48.638;9.060;2023-06-22T00:58:02;4.47;;;2.00;;
10523;SDS011;5310;48.638;9.060;2023-06-22T01:00:30;3.67;;;1.80;;
10523;SDS011;5310;48.638;9.060;2023-06-22T01:02:57;3.67;;;1.73;;
10523;SDS011;5310;48.638;9.060;2023-06-22T01:05:23;4.83;;;2.17;;
10523;SDS011;5310;48.638;9.060;2023-06-22T01:10:40;4.83;;;2.17;;
10523;SDS011;5310;48.638;9.060;2023-06-22T01:13:35;3.63;;;1.90;;
10523;SDS011;5310;48.638;9.060;2023-06-22T01:16:05;4.63;;;2.07;;
10523;SDS011;5310;48.638;9.060;2023-06-22T01:18:34;3.23;;;1.67;;
10523;SDS011;5310;48.638;9.060;2023-06-22T01:21:02;4.07;;;1.90;;
10523;SDS011;5310;48.638;9.060;2023-06-22T01:23:36;4.70;;;2.10;;
10523;SDS011;5310;48.638;9.060;2023-06-22T01:26:25;4.63;;;2.10;;
10523;SDS011;5310;48.638;9.060;2023-06-22T01:28:54;4.50;;;2.07;;
10523;SDS011;5310;48.638;9.060;2023-06-22T01:31:26;5.63;;;2.47;;
10523;SDS011;5310;48.638;9.060;2023-06-22T01:33:56;7.60;;;3.03;;
10523;SDS011;5310;48.638;9.060;2023-06-22T01:36:22;5.83;;;2.53;;
10523;SDS011;5310;48.638;9.060;2023-06-22T01:38:49;5.90;;;2.57;;
10523;SDS011;5310;48.638;9.060;2023-06-22T01:41:16;6.63;;;2.73;;
10523;SDS011;5310;48.638;9.060;2023-06-22T01:43:43;5.00;;;2.47;;
10523;SDS011;5310;48.638;9.060;2023-06-22T01:46:09;4.77;;;2.33;;
10523;SDS011;5310;48.638;9.060;2023-06-22T01:48:36;6.07;;;2.60;;
10523;SDS011;5310;48.638;9.060;2023-06-22T01:51:02;5.63;;;2.57;;
10523;SDS011;5310;48.638;9.060;2023-06-22T01:53:28;5.00;;;2.40;;
10523;SDS011;5310;48.638;9.060;2023-06-22T01:55:54;5.77;;;2.63;;
10523;SDS011;5310;48.638;9.060;2023-06-22T01:58:21;5.20;;;2.50;;
10523;SDS011;5310;48.638;9.060;2023-06-22T02:00:52;4.77;;;2.20;;
10523;SDS011;5310;48.638;9.060;2023-06-22T02:03:19;5.40;;;2.47;;
10523;SDS011;5310;48.638;9.060;2023-06-22T02:05:51;6.07;;;2.70;;
10523;SDS011;5310;48.638;9.060;2023-06-22T02:08:22;5.60;;;2.63;;
10523;SDS011;5310;48.638;9.060;2023-06-22T02:10:49;4.63;;;2.30;;
10523;SDS011;5310;48.638;9.060;2023-06-22T02:13:16;5.73;;;2.70;;
10523;SDS011;5310;48.638;9.060;2023-06-22T02:15:42;6.00;;;2.67;;
10523;SDS011;5310;48.638;9.060;2023-06-22T02:18:09;1.80;;;1.13;;
10523;SDS011;5310;48.638;9.060;2023-06-22T02:20:38;6.37;;;2.87;;
10523;SDS011;5310;48.638;9.060;2023-06-22T02:23:04;5.53;;;2.47;;
10523;SDS011;5310;48.638;9.060;2023-06-22T02:25:31;6.30;;;2.70;;
10523;SDS011;5310;48.638;9.060;2023-06-22T02:27:57;5.33;;;2.50;;
10523;SDS011;5310;48.638;9.060;2023-06-22T02:30:23;6.53;;;2.93;;
10523;SDS011;5310;48.638;9.060;2023-06-22T02:32:49;5.83;;;2.60;;
10523;SDS011;5310;48.638;9.060;2023-06-22T02:35:23;6.00;;;2.67;;
10523;SDS011;5310;48.638;9.060;2023-06-22T02:37:49;5.53;;;2.50;;
10523;SDS011;5310;48.638;9.060;2023-06-22T02:40:16;4.80;;;2.20;;
10523;SDS011;5310;48.638;9.060;2023-06-22T02:42:42;4.97;;;2.47;;
10523;SDS011;5310;48.638;9.060;2023-06-22T02:45:08;5.60;;;2.73;;
10523;SDS011;5310;48.638;9.060;2023-06-22T02:47:34;4.77;;;2.43;;
10523;SDS011;5310;48.638;9.060;2023-06-22T02:50:00;3.70;;;2.07;;
10523;SDS011;5310;48.638;9.060;2023-06-22T02:52:26;3.87;;;2.13;;
10523;SDS011;5310;48.638;9.060;2023-06-22T02:54:52;3.67;;;2.10;;
10523;SDS011;5310;48.638;9.060;2023-06-22T02:57:18;4.20;;;2.10;;
10523;SDS011;5310;48.638;9.060;2023-06-22T02:59:44;4.07;;;2.23;;
10523;SDS011;5310;48.638;9.060;2023-06-22T03:02:10;5.20;;;2.37;;
10523;SDS011;5310;48.638;9.060;2023-06-22T03:04:36;3.10;;;1.83;;
10523;SDS011;5310;48.638;9.060;2023-06-22T03:07:02;5.23;;;2.57;;
10523;SDS011;5310;48.638;9.060;2023-06-22T03:09:28;4.47;;;2.40;;
10523;SDS011;5310;48.638;9.060;2023-06-22T03:11:54;3.87;;;2.10;;
10523;SDS011;5310;48.638;9.060;2023-06-22T03:14:21;3.83;;;2.03;;
10523;SDS011;5310;48.638;9.060;2023-06-22T03:16:47;3.83;;;2.10;;
10523;SDS011;5310;48.638;9.060;2023-06-22T03:19:13;4.07;;;2.13;;
10523;SDS011;5310;48.638;9.060;2023-06-22T03:21:39;3.93;;;2.17;;
10523;SDS011;5310;48.638;9.060;2023-06-22T03:24:06;4.13;;;2.20;;
10523;SDS011;5310;48.638;9.060;2023-06-22T03:26:32;3.60;;;2.10;;
10523;SDS011;5310;48.638;9.060;2023-06-22T03:28:58;3.93;;;2.20;;
10523;SDS011;5310;48.638;9.060;2023-06-22T03:31:23;5.10;;;2.60;;
10523;SDS011;5310;48.638;9.060;2023-06-22T03:33:49;7.13;;;2.80;;
10523;SDS011;5310;48.638;9.060;2023-06-22T03:36:16;2.57;;;1.50;;
10523;SDS011;5310;48.638;9.060;2023-06-22T03:38:45;5.25;;;2.30;;
10523;SDS011;5310;48.638;9.060;2023-06-22T03:41:12;3.67;;;1.93;;
10523;SDS011;5310;48.638;9.060;2023-06-22T03:43:38;7.00;;;2.73;;
10523;SDS011;5310;48.638;9.060;2023-06-22T03:46:04;3.83;;;2.00;;
10523;SDS011;5310;48.638;9.060;2023-06-22T03:48:30;3.58;;;1.85;;
10523;SDS011;5310;48.638;9.060;2023-06-22T03:50:56;4.20;;;2.10;;
10523;SDS011;5310;48.638;9.060;2023-06-22T03:53:22;6.87;;;3.00;;
10523;SDS011;5310;48.638;9.060;2023-06-22T03:55:48;5.77;;;2.50;;
10523;SDS011;5310;48.638;9.060;2023-06-22T03:58:15;5.53;;;2.43;;
10523;SDS011;5310;48.638;9.060;2023-06-22T04:00:41;4.93;;;2.30;;
10523;SDS011;5310;48.638;9.060;2023-06-22T04:03:07;3.73;;;1.90;;
10523;SDS011;5310;48.638;9.060;2023-06-22T04:05:33;3.80;;;1.80;;
10523;SDS011;5310;48.638;9.060;2023-06-22T04:07:59;3.70;;;1.80;;
10523;SDS011;5310;48.638;9.060;2023-06-22T04:10:25;3.97;;;2.00;;
10523;SDS011;5310;48.638;9.060;2023-06-22T04:12:51;3.80;;;1.90;;
10523;SDS011;5310;48.638;9.060;2023-06-22T04:15:17;5.07;;;2.33;;
10523;SDS011;5310;48.638;9.060;2023-06-22T04:17:43;4.13;;;1.90;;
10523;SDS011;5310;48.638;9.060;2023-06-22T04:20:09;4.03;;;2.00;;
10523;SDS011;5310;48.638;9.060;2023-06-22T04:22:35;4.17;;;1.90;;
10523;SDS011;5310;48.638;9.060;2023-06-22T04:25:01;3.47;;;1.73;;
10523;SDS011;5310;48.638;9.060;2023-06-22T04:27:26;5.75;;;2.25;;
10523;SDS011;5310;48.638;9.060;2023-06-22T04:29:52;5.13;;;2.20;;
10523;SDS011;5310;48.638;9.060;2023-06-22T04:32:18;4.97;;;2.28;;
10523;SDS011;5310;48.638;9.060;2023-06-22T04:34:44;4.65;;;2.17;;
10523;SDS011;5310;48.638;9.060;2023-06-22T04:37:10;5.80;;;2.22;;
10523;SDS011;5310;48.638;9.060;2023-06-22T04:39:40;5.82;;;2.33;;
10523;SDS011;5310;48.638;9.060;2023-06-22T04:42:06;4.45;;;2.00;;
10523;SDS011;5310;48.638;9.060;2023-06-22T04:44:32;6.13;;;2.35;;
10523;SDS011;5310;48.638;9.060;2023-06-22T04:46:59;5.80;;;2.20;;
10523;SDS011;5310;48.638;9.060;2023-06-22T04:49:27;4.57;;;2.05;;
10523;SDS011;5310;48.638;9.060;2023-06-22T04:52:01;4.35;;;2.00;;
10523;SDS011;5310;48.638;9.060;2023-06-22T04:54:27;3.58;;;1.67;;
10523;SDS011;5310;48.638;9.060;2023-06-22T04:56:53;4.97;;;2.00;;
10523;SDS011;5310;48.638;9.060;2023-06-22T04:59:24;5.15;;;2.10;;
10523;SDS011;5310;48.638;9.060;2023-06-22T05:01:53;6.13;;;2.50;;
10523;SDS011;5310;48.638;9.060;2023-06-22T05:04:19;5.28;;;2.15;;
10523;SDS011;5310;48.638;9.060;2023-06-22T05:06:45;3.80;;;1.67;;
10523;SDS011;5310;48.638;9.060;2023-06-22T05:09:11;5.55;;;2.17;;
10523;SDS011;5310;48.638;9.060;2023-06-22T05:11:37;6.32;;;2.22;;
10523;SDS011;5310;48.638;9.060;2023-06-22T05:14:03;5.85;;;2.42;;
10523;SDS011;5310;48.638;9.060;2023-06-22T05:16:29;5.32;;;2.20;;
10523;SDS011;5310;48.638;9.060;2023-06-22T05:18:55;3.45;;;1.65;;
10523;SDS011;5310;48.638;9.060;2023-06-22T05:21:22;4.13;;;1.95;;
10523;SDS011;5310;48.638;9.060;2023-06-22T05:23:48;3.85;;;1.77;;
10523;SDS011;5310;48.638;9.060;2023-06-22T05:26:14;2.78;;;1.50;;
10523;SDS011;5310;48.638;9.060;2023-06-22T05:28:40;4.63;;;1.88;;
10523;SDS011;5310;48.638;9.060;2023-06-22T05:31:05;4.53;;;2.00;;
10523;SDS011;5310;48.638;9.060;2023-06-22T05:33:31;4.47;;;2.03;;
10523;SDS011;5310;48.638;9.060;2023-06-22T05:38:23;5.30;;;1.98;;
10523;SDS011;5310;48.638;9.060;2023-06-22T05:40:49;4.85;;;2.08;;
10523;SDS011;5310;48.638;9.060;2023-06-22T05:43:15;4.68;;;1.83;;
10523;SDS011;5310;48.638;9.060;2023-06-22T05:45:41;5.80;;;2.17;;
10523;SDS011;5310;48.638;9.060;2023-06-22T05:48:07;4.65;;;2.05;;
10523;SDS011;5310;48.638;9.060;2023-06-22T05:50:33;5.45;;;2.08;;
10523;SDS011;5310;48.638;9.060;2023-06-22T05:52:59;3.42;;;1.52;;
10523;SDS011;5310;48.638;9.060;2023-06-22T05:55:25;5.15;;;2.25;;
10523;SDS011;5310;48.638;9.060;2023-06-22T05:57:51;3.70;;;1.80;;
10523;SDS011;5310;48.638;9.060;2023-06-22T06:00:17;4.07;;;1.73;;
10523;SDS011;5310;48.638;9.060;2023-06-22T06:02:43;4.45;;;2.05;;
10523;SDS011;5310;48.638;9.060;2023-06-22T06:05:10;3.65;;;1.77;;
10523;SDS011;5310;48.638;9.060;2023-06-22T06:07:38;4.53;;;1.92;;
10523;SDS011;5310;48.638;9.060;2023-06-22T06:10:04;5.35;;;2.17;;
10523;SDS011;5310;48.638;9.060;2023-06-22T06:12:31;3.67;;;1.92;;
10523;SDS011;5310;48.638;9.060;2023-06-22T06:14:57;3.30;;;1.75;;
10523;SDS011;5310;48.638;9.060;2023-06-22T06:17:23;3.03;;;1.60;;
10523;SDS011;5310;48.638;9.060;2023-06-22T06:19:48;2.83;;;1.63;;
10523;SDS011;5310;48.638;9.060;2023-06-22T06:22:14;3.70;;;1.67;;
10523;SDS011;5310;48.638;9.060;2023-06-22T06:24:40;4.68;;;1.92;;
10523;SDS011;5310;48.638;9.060;2023-06-22T06:27:06;4.20;;;1.80;;
10523;SDS011;5310;48.638;9.060;2023-06-22T06:29:33;3.55;;;1.60;;
10523;SDS011;5310;48.638;9.060;2023-06-22T06:31:58;3.35;;;1.63;;
10523;SDS011;5310;48.638;9.060;2023-06-22T06:34:24;3.78;;;1.83;;
10523;SDS011;5310;48.638;9.060;2023-06-22T06:36:50;3.05;;;1.40;;
10523;SDS011;5310;48.638;9.060;2023-06-22T07:30:21;5.23;;;1.83;;
10523;SDS011;5310;48.638;9.060;2023-06-22T07:32:48;4.85;;;1.80;;
10523;SDS011;5310;48.638;9.060;2023-06-22T07:35:14;4.70;;;1.80;;
10523;SDS011;5310;48.638;9.060;2023-06-22T07:37:41;4.40;;;1.70;;
10523;SDS011;5310;48.638;9.060;2023-06-22T07:40:07;3.15;;;1.55;;
10523;SDS011;5310;48.638;9.060;2023-06-22T07:42:33;2.80;;;1.45;;
10523;SDS011;5310;48.638;9.060;2023-06-22T07:44:59;3.92;;;1.80;;
10523;SDS011;5310;48.638;9.060;2023-06-22T07:47:26;4.50;;;1.88;;
10523;SDS011;5310;48.638;9.060;2023-06-22T07:49:53;3.90;;;1.70;;
10523;SDS011;5310;48.638;9.060;2023-06-22T07:52:20;2.53;;;1.35;;
10523;SDS011;5310;48.638;9.060;2023-06-22T07:54:46;4.03;;;1.65;;
10523;SDS011;5310;48.638;9.060;2023-06-22T07:57:12;5.25;;;1.92;;
10523;SDS011;5310;48.638;9.060;2023-06-22T07:59:38;4.95;;;1.77;;
10523;SDS011;5310;48.638;9.060;2023-06-22T08:02:05;4.13;;;1.60;;
10523;SDS011;5310;48.638;9.060;2023-06-22T08:04:30;4.18;;;1.63;;
10523;SDS011;5310;48.638;9.060;2023-06-22T08:06:59;4.15;;;1.63;;
10523;SDS011;5310;48.638;9.060;2023-06-22T08:09:24;4.20;;;1.67;;
10523;SDS011;5310;48.638;9.060;2023-06-22T08:11:50;4.05;;;1.60;;
10523;SDS011;5310;48.638;9.060;2023-06-22T08:14:17;4.35;;;1.65;;
10523;SDS011;5310;48.638;9.060;2023-06-22T08:16:42;4.40;;;1.73;;
10523;SDS011;5310;48.638;9.060;2023-06-22T08:19:08;4.57;;;1.77;;
10523;SDS011;5310;48.638;9.060;2023-06-22T08:21:34;4.45;;;1.63;;
10523;SDS011;5310;48.638;9.060;2023-06-22T08:24:00;4.10;;;1.58;;
10523;SDS011;5310;48.638;9.060;2023-06-22T08:26:27;4.33;;;1.67;;
10523;SDS011;5310;48.638;9.060;2023-06-22T08:28:53;3.97;;;1.50;;
10523;SDS011;5310;48.638;9.060;2023-06-22T08:31:19;4.68;;;1.60;;
10523;SDS011;5310;48.638;9.060;2023-06-22T08:33:45;5.35;;;1.77;;
10523;SDS011;5310;48.638;9.060;2023-06-22T08:36:11;4.60;;;1.60;;
10523;SDS011;5310;48.638;9.060;2023-06-22T08:38:38;4.18;;;1.55;;
10523;SDS011;5310;48.638;9.060;2023-06-22T08:41:04;5.33;;;1.80;;
10523;SDS011;5310;48.638;9.060;2023-06-22T08:43:30;4.80;;;1.75;;
10523;SDS011;5310;48.638;9.060;2023-06-22T08:45:56;5.00;;;1.80;;
10523;SDS011;5310;48.638;9.060;2023-06-22T08:48:22;6.07;;;2.00;;
10523;SDS011;5310;48.638;9.060;2023-06-22T08:50:48;5.20;;;1.80;;
10523;SDS011;5310;48.638;9.060;2023-06-22T08:53:14;4.70;;;1.57;;
10523;SDS011;5310;48.638;9.060;2023-06-22T08:55:40;6.38;;;2.15;;
10523;SDS011;5310;48.638;9.060;2023-06-22T08:58:06;6.90;;;2.25;;
10523;SDS011;5310;48.638;9.060;2023-06-22T09:00:32;6.88;;;2.15;;
10523;SDS011;5310;48.638;9.060;2023-06-22T09:02:59;5.55;;;1.88;;
10523;SDS011;5310;48.638;9.060;2023-06-22T09:05:25;5.22;;;1.80;;
10523;SDS011;5310;48.638;9.060;2023-06-22T09:07:51;3.97;;;1.50;;
10523;SDS011;5310;48.638;9.060;2023-06-22T09:10:19;3.97;;;1.50;;
10523;SDS011;5310;48.638;9.060;2023-06-22T09:12:45;3.25;;;1.35;;
10523;SDS011;5310;48.638;9.060;2023-06-22T09:15:11;2.63;;;1.23;;
10523;SDS011;5310;48.638;9.060;2023-06-22T09:17:37;3.40;;;1.45;;
10523;SDS011;5310;48.638;9.060;2023-06-22T09:20:03;3.55;;;1.45;;
10523;SDS011;5310;48.638;9.060;2023-06-22T09:22:30;3.40;;;1.50;;
10523;SDS011;5310;48.638;9.060;2023-06-22T09:24:56;2.63;;;1.20;;
10523;SDS011;5310;48.638;9.060;2023-06-22T09:27:23;3.70;;;1.52;;
10523;SDS011;5310;48.638;9.060;2023-06-22T09:29:49;2.95;;;1.48;;
10523;SDS011;5310;48.638;9.060;2023-06-22T09:32:15;2.28;;;1.25;;
10523;SDS011;5310;48.638;9.060;2023-06-22T09:34:41;2.33;;;1.25;;
10523;SDS011;5310;48.638;9.060;2023-06-22T09:37:07;2.42;;;1.17;;
10523;SDS011;5310;48.638;9.060;2023-06-22T09:39:33;2.00;;;1.13;;
10523;SDS011;5310;48.638;9.060;2023-06-22T09:41:59;2.80;;;1.23;;
10523;SDS011;5310;48.638;9.060;2023-06-22T09:44:25;2.67;;;1.30;;
10523;SDS011;5310;48.638;9.060;2023-06-22T09:46:51;3.42;;;1.40;;
10523;SDS011;5310;48.638;9.060;2023-06-22T09:49:17;3.15;;;1.40;;
10523;SDS011;5310;48.638;9.060;2023-06-22T09:51:43;2.72;;;1.20;;
10523;SDS011;5310;48.638;9.060;2023-06-22T09:54:09;3.13;;;1.40;;
10523;SDS011;5310;48.638;9.060;2023-06-22T10:25:51;2.40;;;1.20;;
10523;SDS011;5310;48.638;9.060;2023-06-22T10:28:17;2.88;;;1.30;;
10523;SDS011;5310;48.638;9.060;2023-06-22T10:30:43;2.30;;;1.17;;
10523;SDS011;5310;48.638;9.060;2023-06-22T10:33:09;2.58;;;1.20;;
10523;SDS011;5310;48.638;9.060;2023-06-22T10:40:28;3.27;;;1.20;;
10523;SDS011;5310;48.638;9.060;2023-06-22T10:42:54;3.45;;;1.33;;
10523;SDS011;5310;48.638;9.060;2023-06-22T10:47:45;3.38;;;1.33;;
10523;SDS011;5310;48.638;9.060;2023-06-22T10:50:11;3.15;;;1.30;;
10523;SDS011;5310;48.638;9.060;2023-06-22T10:52:37;3.00;;;1.40;;
10523;SDS011;5310;48.638;9.060;2023-06-22T10:55:03;2.45;;;1.23;;
10523;SDS011;5310;48.638;9.060;2023-06-22T10:57:29;2.40;;;1.17;;
10523;SDS011;5310;48.638;9.060;2023-06-22T10:59:55;2.40;;;1.08;;
10523;SDS011;5310;48.638;9.060;2023-06-22T11:02:21;2.25;;;1.13;;
10523;SDS011;5310;48.638;9.060;2023-06-22T11:04:47;1.92;;;1.00;;
10523;SDS011;5310;48.638;9.060;2023-06-22T11:07:15;1.63;;;0.90;;
10523;SDS011;5310;48.638;9.060;2023-06-22T11:09:40;2.03;;;1.00;;
10523;SDS011;5310;48.638;9.060;2023-06-22T11:12:08;2.03;;;0.90;;
10523;SDS011;5310;48.638;9.060;2023-06-22T11:14:34;2.83;;;1.20;;
10523;SDS011;5310;48.638;9.060;2023-06-22T11:17:00;3.67;;;1.30;;
10523;SDS011;5310;48.638;9.060;2023-06-22T11:19:26;2.72;;;1.20;;
10523;SDS011;5310;48.638;9.060;2023-06-22T11:21:51;3.83;;;1.47;;
10523;SDS011;5310;48.638;9.060;2023-06-22T11:24:17;2.53;;;1.17;;
10523;SDS011;5310;48.638;9.060;2023-06-22T11:26:43;2.30;;;1.17;;
10523;SDS011;5310;48.638;9.060;2023-06-22T11:29:09;3.33;;;1.40;;
10523;SDS011;5310;48.638;9.060;2023-06-22T11:31:35;2.45;;;1.10;;
10523;SDS011;5310;48.638;9.060;2023-06-22T11:34:02;3.05;;;1.25;;
10523;SDS011;5310;48.638;9.060;2023-06-22T11:36:28;3.22;;;1.27;;
10523;SDS011;5310;48.638;9.060;2023-06-22T11:38:57;2.95;;;1.30;;
10523;SDS011;5310;48.638;9.060;2023-06-22T11:41:23;2.63;;;1.10;;
10523;SDS011;5310;48.638;9.060;2023-06-22T11:43:49;2.00;;;1.10;;
10523;SDS011;5310;48.638;9.060;2023-06-22T11:46:15;3.53;;;1.50;;
10523;SDS011;5310;48.638;9.060;2023-06-22T11:48:41;3.72;;;1.60;;
10523;SDS011;5310;48.638;9.060;2023-06-22T11:51:07;2.55;;;1.27;;
10523;SDS011;5310;48.638;9.060;2023-06-22T11:53:34;2.47;;;1.20;;
10523;SDS011;5310;48.638;9.060;2023-06-22T11:56:00;1.98;;;1.10;;
10523;SDS011;5310;48.638;9.060;2023-06-22T11:58:26;2.88;;;1.27;;
10523;SDS011;5310;48.638;9.060;2023-06-22T12:00:53;2.60;;;1.27;;
10523;SDS011;5310;48.638;9.060;2023-06-22T12:03:19;2.15;;;1.10;;
10523;SDS011;5310;48.638;9.060;2023-06-22T12:05:49;2.38;;;1.15;;
10523;SDS011;5310;48.638;9.060;2023-06-22T12:08:16;2.50;;;1.20;;
10523;SDS011;5310;48.638;9.060;2023-06-22T12:10:42;2.13;;;1.13;;
10523;SDS011;5310;48.638;9.060;2023-06-22T12:13:08;2.28;;;1.15;;
10523;SDS011;5310;48.638;9.060;2023-06-22T12:15:34;2.83;;;1.30;;
10523;SDS011;5310;48.638;9.060;2023-06-22T12:17:59;1.90;;;1.00;;
10523;SDS011;5310;48.638;9.060;2023-06-22T12:20:26;2.40;;;1.13;;
10523;SDS011;5310;48.638;9.060;2023-06-22T12:22:52;1.50;;;0.90;;
10523;SDS011;5310;48.638;9.060;2023-06-22T12:25:20;1.60;;;0.90;;
10523;SDS011;5310;48.638;9.060;2023-06-22T12:27:46;1.73;;;1.00;;
10523;SDS011;5310;48.638;9.060;2023-06-22T12:30:12;2.85;;;1.20;;
10523;SDS011;5310;48.638;9.060;2023-06-22T12:32:38;2.33;;;1.13;;
10523;SDS011;5310;48.638;9.060;2023-06-22T12:35:04;1.73;;;0.98;;
10523;SDS011;5310;48.638;9.060;2023-06-22T12:37:32;2.47;;;1.25;;
10523;SDS011;5310;48.638;9.060;2023-06-22T12:39:58;1.45;;;0.98;;
10523;SDS011;5310;48.638;9.060;2023-06-22T12:42:24;3.15;;;1.50;;
10523;SDS011;5310;48.638;9.060;2023-06-22T12:44:51;2.70;;;1.25;;
10523;SDS011;5310;48.638;9.060;2023-06-22T12:47:17;2.85;;;1.38;;
10523;SDS011;5310;48.638;9.060;2023-06-22T12:49:45;2.85;;;1.27;;
10523;SDS011;5310;48.638;9.060;2023-06-22T12:52:11;3.08;;;1.40;;
10523;SDS011;5310;48.638;9.060;2023-06-22T12:54:37;2.75;;;1.35;;
10523;SDS011;5310;48.638;9.060;2023-06-22T12:57:03;2.08;;;1.15;;
10523;SDS011;5310;48.638;9.060;2023-06-22T12:59:28;2.15;;;1.20;;
10523;SDS011;5310;48.638;9.060;2023-06-22T13:01:54;2.70;;;1.30;;
10523;SDS011;5310;48.638;9.060;2023-06-22T13:04:20;1.90;;;1.13;;
10523;SDS011;5310;48.638;9.060;2023-06-22T13:06:46;2.00;;;1.10;;
10523;SDS011;5310;48.638;9.060;2023-06-22T13:09:13;1.75;;;1.05;;
10523;SDS011;5310;48.638;9.060;2023-06-22T13:11:39;1.73;;;1.00;;
10523;SDS011;5310;48.638;9.060;2023-06-22T13:14:05;1.35;;;0.80;;
10523;SDS011;5310;48.638;9.060;2023-06-22T13:16:31;1.50;;;0.90;;
10523;SDS011;5310;48.638;9.060;2023-06-22T13:18:57;2.10;;;1.10;;
10523;SDS011;5310;48.638;9.060;2023-06-22T13:21:23;1.80;;;0.98;;
10523;SDS011;5310;48.638;9.060;2023-06-22T13:23:49;1.65;;;0.88;;
10523;SDS011;5310;48.638;9.060;2023-06-22T13:26:15;1.48;;;0.88;;
10523;SDS011;5310;48.638;9.060;2023-06-22T13:28:41;1.95;;;1.02;;
10523;SDS011;5310;48.638;9.060;2023-06-22T13:31:07;2.70;;;1.38;;
10523;SDS011;5310;48.638;9.060;2023-06-22T13:33:33;2.63;;;1.30;;
10523;SDS011;5310;48.638;9.060;2023-06-22T13:35:59;2.63;;;1.20;;
10523;SDS011;5310;48.638;9.060;2023-06-22T13:38:25;2.63;;;1.30;;
10523;SDS011;5310;48.638;9.060;2023-06-22T13:40:51;2.97;;;1.38;;
10523;SDS011;5310;48.638;9.060;2023-06-22T13:43:18;2.30;;;1.10;;
10523;SDS011;5310;48.638;9.060;2023-06-22T13:45:44;2.75;;;1.25;;
10523;SDS011;5310;48.638;9.060;2023-06-22T13:48:10;3.45;;;1.58;;
10523;SDS011;5310;48.638;9.060;2023-06-22T13:50:36;3.72;;;1.67;;
10523;SDS011;5310;48.638;9.060;2023-06-22T13:53:02;3.33;;;1.58;;
10523;SDS011;5310;48.638;9.060;2023-06-22T13:55:28;4.70;;;1.75;;
10523;SDS011;5310;48.638;9.060;2023-06-22T13:57:53;3.25;;;1.33;;
10523;SDS011;5310;48.638;9.060;2023-06-22T14:00:19;4.85;;;1.92;;
10523;SDS011;5310;48.638;9.060;2023-06-22T14:02:45;3.28;;;1.40;;
10523;SDS011;5310;48.638;9.060;2023-06-22T14:05:11;3.45;;;1.55;;
10523;SDS011;5310;48.638;9.060;2023-06-22T14:07:37;2.40;;;1.20;;
10523;SDS011;5310;48.638;9.060;2023-06-22T14:10:03;3.53;;;1.52;;
10523;SDS011;5310;48.638;9.060;2023-06-22T14:12:29;2.05;;;1.15;;
10523;SDS011;5310;48.638;9.060;2023-06-22T14:14:55;2.75;;;1.38;;
10523;SDS011;5310;48.638;9.060;2023-06-22T14:17:22;2.45;;;1.25;;
10523;SDS011;5310;48.638;9.060;2023-06-22T14:19:50;3.10;;;1.50;;
10523;SDS011;5310;48.638;9.060;2023-06-22T14:22:17;2.67;;;1.33;;
10523;SDS011;5310;48.638;9.060;2023-06-22T14:24:43;2.90;;;1.27;;
10523;SDS011;5310;48.638;9.060;2023-06-22T14:27:09;4.13;;;1.75;;
10523;SDS011;5310;48.638;9.060;2023-06-22T14:29:35;3.42;;;1.55;;
10523;SDS011;5310;48.638;9.060;2023-06-22T14:32:01;3.13;;;1.42;;
10523;SDS011;5310;48.638;9.060;2023-06-22T14:34:27;2.42;;;1.27;;
10523;SDS011;5310;48.638;9.060;2023-06-22T14:36:53;3.13;;;1.45;;
10523;SDS011;5310;48.638;9.060;2023-06-22T14:39:19;1.75;;;0.90;;
10523;SDS011;5310;48.638;9.060;2023-06-22T14:41:46;2.67;;;1.30;;
10523;SDS011;5310;48.638;9.060;2023-06-22T14:44:12;3.55;;;1.48;;
10523;SDS011;5310;48.638;9.060;2023-06-22T14:46:37;2.92;;;1.25;;
10523;SDS011;5310;48.638;9.060;2023-06-22T14:49:03;2.78;;;1.33;;
10523;SDS011;5310;48.638;9.060;2023-06-22T14:51:29;4.05;;;1.67;;
10523;SDS011;5310;48.638;9.060;2023-06-22T14:53:55;2.65;;;1.33;;
10523;SDS011;5310;48.638;9.060;2023-06-22T14:56:21;2.67;;;1.27;;
10523;SDS011;5310;48.638;9.060;2023-06-22T14:58:47;4.10;;;1.67;;
10523;SDS011;5310;48.638;9.060;2023-06-22T15:01:14;3.45;;;1.42;;
10523;SDS011;5310;48.638;9.060;2023-06-22T15:03:41;2.72;;;1.33;;
10523;SDS011;5310;48.638;9.060;2023-06-22T15:06:08;2.60;;;1.30;;
10523;SDS011;5310;48.638;9.060;2023-06-22T15:08:34;2.70;;;1.30;;
10523;SDS011;5310;48.638;9.060;2023-06-22T15:11:00;2.75;;;1.33;;
10523;SDS011;5310;48.638;9.060;2023-06-22T15:13:26;1.85;;;0.98;;
10523;SDS011;5310;48.638;9.060;2023-06-22T15:15:52;4.35;;;1.73;;
10523;SDS011;5310;48.638;9.060;2023-06-22T15:18:18;2.28;;;1.25;;
10523;SDS011;5310;48.638;9.060;2023-06-22T15:20:44;2.13;;;1.05;;
10523;SDS011;5310;48.638;9.060;2023-06-22T15:23:11;3.15;;;1.52;;
10523;SDS011;5310;48.638;9.060;2023-06-22T15:25:37;4.05;;;1.67;;
10523;SDS011;5310;48.638;9.060;2023-06-22T15:28:03;4.07;;;1.83;;
10523;SDS011;5310;48.638;9.060;2023-06-22T15:30:29;3.45;;;1.42;;
10523;SDS011;5310;48.638;9.060;2023-06-22T15:32:56;3.75;;;1.67;;
10523;SDS011;5310;48.638;9.060;2023-06-22T15:35:25;3.42;;;1.60;;
10523;SDS011;5310;48.638;9.060;2023-06-22T15:37:51;3.45;;;1.58;;
10523;SDS011;5310;48.638;9.060;2023-06-22T15:40:17;3.72;;;1.60;;
10523;SDS011;5310;48.638;9.060;2023-06-22T15:42:44;3.10;;;1.40;;
10523;SDS011;5310;48.638;9.060;2023-06-22T15:45:11;4.82;;;2.00;;
10523;SDS011;5310;48.638;9.060;2023-06-22T15:47:36;2.17;;;1.15;;
10523;SDS011;5310;48.638;9.060;2023-06-22T15:50:02;2.95;;;1.35;;
10523;SDS011;5310;48.638;9.060;2023-06-22T15:52:29;2.63;;;1.23;;
10523;SDS011;5310;48.638;9.060;2023-06-22T15:54:54;2.42;;;1.33;;
10523;SDS011;5310;48.638;9.060;2023-06-22T15:57:23;1.83;;;1.05;;
10523;SDS011;5310;48.638;9.060;2023-06-22T15:59:51;2.78;;;1.30;;
10523;SDS011;5310;48.638;9.060;2023-06-22T16:02:17;4.18;;;1.60;;
10523;SDS011;5310;48.638;9.060;2023-06-22T16:04:42;3.88;;;1.60;;
10523;SDS011;5310;48.638;9.060;2023-06-22T16:07:08;4.43;;;1.92;;
10523;SDS011;5310;48.638;9.060;2023-06-22T16:09:37;2.67;;;1.15;;
10523;SDS011;5310;48.638;9.060;2023-06-22T16:12:03;2.83;;;1.40;;
10523;SDS011;5310;48.638;9.060;2023-06-22T16:14:30;2.03;;;1.20;;
10523;SDS011;5310;48.638;9.060;2023-06-22T16:16:56;4.50;;;1.88;;
10523;SDS011;5310;48.638;9.060;2023-06-22T16:19:21;4.00;;;1.88;;
10523;SDS011;5310;48.638;9.060;2023-06-22T16:21:47;4.72;;;2.10;;
10523;SDS011;5310;48.638;9.060;2023-06-22T16:24:13;4.25;;;1.65;;
10523;SDS011;5310;48.638;9.060;2023-06-22T16:26:40;3.47;;;1.40;;
10523;SDS011;5310;48.638;9.060;2023-06-22T16:29:06;3.85;;;1.60;;